Time;durP1;ratioP1;P1;durP2;ratioP2;P2;SDS_P1;SDS_P2;PMS_P1;PMS_P2;Temp;Humidity;BMP_temperature;BMP_pressure;BME280_temperature;BME280_humidity;BME280_pressure;Samples;Min_cycle;Max_cycle;Signal;HPM_P1;HPM_P2
2023/02/26 00:00:11;;;;;;;13.43;2.58;;;;;;;1.14;69.83;101161.84;5126766;27;20067;-56
2023/02/26 00:02:38;;;;;;;8.20;2.30;;;;;;;1.14;70.00;101174.91;5109294;28;20413;-55
2023/02/26 00:05:05;;;;;;;9.60;3.00;;;;;;;1.19;69.78;101172.06;5113708;28;20108;-55
2023/02/26 00:07:32;;;;;;;12.48;2.80;;;;;;;1.20;69.33;101179.81;5109608;28;20405;-55
2023/02/26 00:10:01;;;;;;;11.40;2.20;;;;;;;1.20;70.13;101181.56;5113897;28;20397;-56
2023/02/26 00:12:29;;;;;;;10.63;2.85;;;;;;;1.22;70.04;101184.94;5106493;28;20180;-55
2023/02/26 00:14:56;;;;;;;8.07;2.53;;;;;;;1.22;69.88;101192.78;5129976;27;20043;-55
2023/02/26 00:17:48;;;;;;;11.70;3.03;;;;;;;1.15;70.32;101187.06;5109799;28;20120;-55
2023/02/26 00:20:16;;;;;;;10.07;2.92;;;;;;;1.20;70.35;101184.19;5120978;27;20112;-56
2023/02/26 00:22:43;;;;;;;10.45;2.53;;;;;;;1.13;70.15;101179.31;5129833;27;20263;-55
2023/02/26 00:25:11;;;;;;;9.30;2.40;;;;;;;1.07;71.04;101192.69;5134280;27;20046;-56
2023/02/26 00:27:38;;;;;;;10.13;2.60;;;;;;;1.16;70.40;101196.56;5130074;27;20771;-56
2023/02/26 00:30:07;;;;;;;9.13;2.78;;;;;;;1.05;71.76;101204.16;5131157;27;20118;-56
2023/02/26 00:32:35;;;;;;;8.30;2.50;;;;;;;0.98;71.33;101205.41;5134098;27;20051;-56
2023/02/26 00:35:03;;;;;;;9.85;2.60;;;;;;;1.03;71.60;101209.44;5130050;27;20092;-55
2023/02/26 00:38:09;;;;;;;16.42;3.10;;;;;;;1.02;72.08;101207.78;5131270;27;20390;-53
2023/02/26 00:40:48;;;;;;;11.38;2.70;;;;;;;1.09;71.97;101213.50;5106833;28;20048;-55
2023/02/26 00:43:21;;;;;;;9.20;2.50;;;;;;;1.10;71.92;101202.13;5111123;28;20460;-55
2023/02/26 00:46:18;;;;;;;11.23;3.00;;;;;;;1.09;72.41;101214.38;5106361;28;20036;-55
2023/02/26 00:48:59;;;;;;;14.50;3.00;;;;;;;1.18;71.64;101227.88;5110383;28;20130;-55
2023/02/26 00:51:50;;;;;;;11.35;2.83;;;;;;;1.11;72.59;101228.19;5090294;28;20054;-56
2023/02/26 00:54:21;;;;;;;16.10;2.80;;;;;;;1.11;72.44;101222.97;5090349;28;20094;-55
2023/02/26 00:56:51;;;;;;;11.40;3.00;;;;;;;1.15;72.83;101221.03;5085558;28;20397;-53
2023/02/26 00:59:19;;;;;;;9.00;2.88;;;;;;;1.09;72.95;101229.19;5090363;28;20387;-54
2023/02/26 01:01:47;;;;;;;10.73;2.75;;;;;;;1.10;72.96;101234.34;5067104;28;20052;-55
2023/02/26 01:04:17;;;;;;;13.52;3.08;;;;;;;1.15;72.85;101224.50;5086838;28;20081;-55
2023/02/26 01:06:51;;;;;;;8.50;2.60;;;;;;;1.15;72.31;101226.25;5090133;28;20052;-55
2023/02/26 01:09:29;;;;;;;13.77;3.20;;;;;;;1.09;72.63;101216.13;5085865;28;20068;-54
2023/02/26 01:12:00;;;;;;;14.07;2.97;;;;;;;0.98;72.87;101218.47;5090294;28;20040;-56
2023/02/26 01:14:28;;;;;;;15.20;3.38;;;;;;;1.19;72.87;101219.09;5085457;28;20083;-55
2023/02/26 01:17:17;;;;;;;13.07;3.10;;;;;;;1.17;72.14;101211.34;5089835;28;20508;-55
2023/02/26 01:20:09;;;;;;;14.88;3.00;;;;;;;1.17;71.97;101226.19;5081065;28;20060;-56
2023/02/26 01:22:42;;;;;;;12.82;3.10;;;;;;;1.20;72.85;101237.31;5088674;28;20051;-56
2023/02/26 01:25:15;;;;;;;13.77;3.17;;;;;;;1.19;71.66;101250.47;5085184;28;20070;-55
2023/02/26 01:27:42;;;;;;;13.15;3.00;;;;;;;1.28;72.49;101253.44;5089626;28;20041;-55
2023/02/26 01:30:09;;;;;;;13.35;3.15;;;;;;;1.10;72.32;101246.56;5085068;28;20047;-55
2023/02/26 01:32:48;;;;;;;16.42;3.33;;;;;;;1.06;72.23;101250.28;5089847;28;20067;-55
2023/02/26 01:35:31;;;;;;;10.73;2.70;;;;;;;1.12;72.40;101242.09;5081628;28;20048;-54
2023/02/26 01:38:27;;;;;;;9.45;3.05;;;;;;;1.22;73.24;101256.38;5069468;28;20044;-55
2023/02/26 01:41:34;;;;;;;14.63;2.95;;;;;;;1.19;72.13;101245.25;5064604;28;20049;-55
2023/02/26 01:47:20;;;;;;;9.05;2.88;;;;;;;1.21;71.90;101243.38;5067114;28;20387;-54
2023/02/26 01:49:48;;;;;;;12.00;3.60;;;;;;;1.22;72.48;101245.06;5065634;28;20049;-54
2023/02/26 01:52:52;;;;;;;10.15;2.80;;;;;;;0.98;72.21;101247.19;5067126;28;20045;-54
2023/02/26 01:55:24;;;;;;;17.13;3.50;;;;;;;0.90;74.13;101253.66;5068408;28;20497;-55
2023/02/26 01:57:56;;;;;;;13.43;3.42;;;;;;;1.07;73.82;101258.00;5068855;28;20049;-55
2023/02/26 02:00:22;;;;;;;;;;;;;;;1.08;73.93;101257.09;5067011;28;20053;-56
2023/02/26 02:02:52;;;;;;;13.85;3.00;;;;;;;0.94;73.81;101257.81;5070068;28;19927;-55
2023/02/26 02:05:27;;;;;;;11.45;3.10;;;;;;;0.99;74.15;101267.19;5067227;28;20402;-54
2023/02/26 02:07:56;;;;;;;14.13;3.30;;;;;;;0.92;74.35;101269.25;5066660;28;20099;-55
2023/02/26 02:10:24;;;;;;;14.25;2.90;;;;;;;1.00;74.49;101271.47;5069973;28;20410;-55
2023/02/26 02:13:31;;;;;;;15.15;2.97;;;;;;;0.92;74.73;101270.09;5065668;28;20045;-55
2023/02/26 02:18:51;;;;;;;10.93;3.10;;;;;;;0.69;75.74;101273.03;5066410;28;20895;-55
2023/02/26 02:21:50;;;;;;;12.85;3.05;;;;;;;0.69;76.04;101275.66;5068396;28;20060;-55
2023/02/26 02:27:54;;;;;;;18.05;3.53;;;;;;;0.64;76.45;101278.50;5110823;27;20346;-56
2023/02/26 02:33:11;;;;;;;15.02;3.25;;;;;;;0.53;77.14;101286.88;5070271;28;20357;-55
2023/02/26 02:35:45;;;;;;;10.65;2.90;;;;;;;0.53;76.76;101281.66;5067668;28;20094;-54
2023/02/26 02:38:34;;;;;;;21.75;3.10;;;;;;;0.55;76.20;101295.47;5069823;28;20098;-54
2023/02/26 02:41:10;;;;;;;12.02;3.17;;;;;;;0.53;75.52;101296.47;5066950;28;20067;-56
2023/02/26 02:43:40;;;;;;;16.80;4.18;;;;;;;0.51;75.94;101293.94;5069964;28;20562;-55
2023/02/26 02:46:14;;;;;;;9.73;2.97;;;;;;;0.53;76.21;101297.31;5065714;28;20044;-55
2023/02/26 02:48:52;;;;;;;13.80;2.85;;;;;;;0.57;75.91;101305.84;5068853;28;20051;-56
2023/02/26 02:51:26;;;;;;;12.65;3.40;;;;;;;0.53;75.99;101307.75;5065719;28;20110;-55
2023/02/26 02:54:03;;;;;;;10.40;3.08;;;;;;;0.44;76.39;101318.66;5070183;28;20044;-55
2023/02/26 02:56:40;;;;;;;14.82;3.50;;;;;;;0.45;76.73;101315.09;5062274;28;20118;-55
2023/02/26 02:59:17;;;;;;;12.45;3.20;;;;;;;0.48;76.79;101316.75;5069915;28;20060;-55
2023/02/26 03:01:49;;;;;;;10.77;3.50;;;;;;;0.46;77.19;101313.38;5065018;28;20041;-55
2023/02/26 03:04:17;;;;;;;15.75;2.75;;;;;;;0.48;76.66;101316.75;5069814;28;20094;-55
2023/02/26 03:06:45;;;;;;;12.15;3.42;;;;;;;0.38;76.40;101322.41;5065401;28;20056;-55
2023/02/26 03:09:12;;;;;;;12.05;2.78;;;;;;;0.36;75.95;101324.25;5069716;28;20052;-55
2023/02/26 03:11:40;;;;;;;13.77;3.38;;;;;;;0.46;76.18;101329.88;5065168;28;20434;-55
2023/02/26 03:14:09;;;;;;;16.65;3.40;;;;;;;0.47;75.41;101338.53;5066315;28;20094;-55
2023/02/26 03:23:00;;;;;;;9.95;2.80;;;;;;;0.32;73.72;101334.91;5110289;27;20371;-56
2023/02/26 03:25:50;;;;;;;14.63;2.90;;;;;;;0.32;74.29;101338.34;5106539;28;20036;-56
2023/02/26 03:28:34;;;;;;;11.90;2.97;;;;;;;0.36;73.69;101336.44;5108560;28;20040;-56
2023/02/26 03:31:18;;;;;;;12.32;2.90;;;;;;;0.46;72.81;101342.91;5107508;28;20048;-56
2023/02/26 03:34:09;;;;;;;11.05;3.33;;;;;;;0.50;73.45;101349.69;5111016;28;20126;-56
2023/02/26 03:36:42;;;;;;;;;;;;;;;0.32;72.44;101359.22;5106620;28;20046;-56
2023/02/26 03:39:28;;;;;;;14.52;2.80;;;;;;;0.41;72.46;101368.41;5110662;28;19923;-56
2023/02/26 03:42:10;;;;;;;10.95;3.33;;;;;;;0.30;72.91;101376.72;5106031;28;20043;-53
2023/02/26 03:44:57;;;;;;;10.40;2.63;;;;;;;0.24;73.87;101381.38;5111000;28;20061;-56
2023/02/26 03:47:24;;;;;;;8.68;3.00;;;;;;;0.25;73.28;101377.88;5102649;28;20044;-56
2023/02/26 03:50:01;;;;;;;12.93;2.80;;;;;;;0.13;74.07;101380.13;5106125;28;20071;-54
2023/02/26 03:52:36;;;;;;;8.98;2.70;;;;;;;0.22;73.81;101385.84;5085808;28;20050;-57
2023/02/26 03:55:20;;;;;;;7.90;2.70;;;;;;;0.22;74.76;101389.31;5090006;28;20041;-54
2023/02/26 03:57:55;;;;;;;12.13;3.50;;;;;;;0.30;74.54;101395.00;5084287;28;20052;-56
2023/02/26 04:00:31;;;;;;;14.45;3.20;;;;;;;0.31;75.83;101391.50;5089528;28;20435;-56
2023/02/26 04:03:04;;;;;;;10.30;2.80;;;;;;;0.26;75.21;101398.69;5082126;28;20040;-54
2023/02/26 04:05:32;;;;;;;;;;;;;;;0.19;75.47;101395.50;5089909;28;20063;-56
2023/02/26 04:08:00;;;;;;;11.80;3.03;;;;;;;0.14;75.80;101394.03;5085351;28;20037;-56
2023/02/26 04:10:53;;;;;;;9.60;2.80;;;;;;;0.10;76.21;101389.88;5090017;28;20044;-56
2023/02/26 04:13:20;;;;;;;13.38;3.00;;;;;;;0.04;76.55;101401.44;5085411;28;20049;-56
2023/02/26 04:15:48;;;;;;;8.63;3.20;;;;;;;0.07;77.55;101395.22;5089666;28;20040;-56
2023/02/26 04:18:15;;;;;;;11.43;3.00;;;;;;;0.01;77.67;101398.13;5084985;28;20056;-56
2023/02/26 04:20:42;;;;;;;15.43;3.30;;;;;;;-0.01;77.66;101399.03;5085706;28;20466;-56
2023/02/26 04:23:09;;;;;;;15.38;3.25;;;;;;;-0.03;77.74;101402.63;5089720;28;20497;-56
2023/02/26 04:25:36;;;;;;;8.00;2.58;;;;;;;-0.06;78.02;101400.16;5084728;28;20044;-56
2023/02/26 04:28:04;;;;;;;11.57;2.90;;;;;;;-0.04;78.74;101413.97;5089418;28;20060;-56
2023/02/26 04:30:31;;;;;;;11.98;3.10;;;;;;;-0.13;78.77;101415.22;5085067;28;20058;-56
2023/02/26 04:32:59;;;;;;;10.55;2.75;;;;;;;-0.17;79.17;101410.22;5081792;28;20040;-55
2023/02/26 04:35:26;;;;;;;12.18;3.13;;;;;;;-0.22;79.17;101411.28;5067970;28;20036;-56
2023/02/26 04:37:55;;;;;;;11.82;2.88;;;;;;;-0.24;79.94;101414.84;5075824;28;20131;-56
2023/02/26 04:40:22;;;;;;;9.85;3.00;;;;;;;-0.20;80.28;101414.66;5073435;28;20041;-56
2023/02/26 04:42:50;;;;;;;8.85;2.63;;;;;;;-0.21;80.33;101417.34;5074354;28;20043;-56
2023/02/26 04:45:22;;;;;;;8.23;2.90;;;;;;;-0.29;80.15;101414.22;5071263;28;20048;-56
2023/02/26 04:47:49;;;;;;;9.02;2.70;;;;;;;-0.24;79.98;101431.38;5075828;28;20053;-55
2023/02/26 04:50:16;;;;;;;12.23;2.97;;;;;;;-0.26;79.21;101435.78;5074371;28;20083;-56
2023/02/26 04:52:45;;;;;;;9.82;2.50;;;;;;;-0.21;78.93;101435.59;5070064;28;20074;-56
2023/02/26 04:55:12;;;;;;;13.77;2.83;;;;;;;-0.21;80.31;101443.41;5075210;28;20040;-56
2023/02/26 04:57:39;;;;;;;7.32;2.60;;;;;;;-0.36;79.94;101446.69;5070809;28;20144;-56
2023/02/26 05:00:06;;;;;;;9.13;2.80;;;;;;;-0.35;80.69;101441.41;5073963;28;20048;-56
2023/02/26 05:02:35;;;;;;;7.00;2.65;;;;;;;-0.32;80.09;101453.47;5070487;28;20033;-56
2023/02/26 05:05:03;;;;;;;9.75;2.80;;;;;;;-0.39;79.91;101456.34;5074965;28;20040;-55
2023/02/26 05:07:29;;;;;;;15.50;2.60;;;;;;;-0.44;80.13;101454.84;5070827;28;20136;-56
2023/02/26 05:09:56;;;;;;;11.00;2.95;;;;;;;-0.45;80.18;101463.59;5071906;28;20052;-55
2023/02/26 05:12:23;;;;;;;10.65;3.17;;;;;;;-0.41;80.54;101465.16;5075196;28;20036;-56
2023/02/26 05:14:50;;;;;;;10.13;2.50;;;;;;;-0.46;79.98;101464.50;5070538;28;20494;-56
2023/02/26 05:17:17;;;;;;;7.68;2.42;;;;;;;-0.43;79.42;101462.59;5075143;28;20049;-56
2023/02/26 05:19:44;;;;;;;14.20;3.25;;;;;;;-0.44;79.80;101470.47;5070244;28;20620;-56
2023/02/26 05:22:11;;;;;;;12.82;2.90;;;;;;;-0.42;78.65;101473.88;5083984;28;20101;-55
2023/02/26 05:24:38;;;;;;;10.35;2.78;;;;;;;-0.48;79.54;101472.38;5087450;28;20052;-56
2023/02/26 05:27:05;;;;;;;7.85;2.30;;;;;;;-0.44;79.49;101466.13;5094910;28;20127;-56
2023/02/26 05:29:34;;;;;;;13.27;2.67;;;;;;;-0.54;79.82;101480.47;5090769;28;20036;-55
2023/02/26 05:32:02;;;;;;;8.80;2.20;;;;;;;-0.54;80.07;101479.63;5094978;28;20044;-56
2023/02/26 05:34:29;;;;;;;8.48;2.42;;;;;;;-0.53;79.88;101479.53;5090608;28;20073;-56
2023/02/26 05:36:56;;;;;;;17.98;3.78;;;;;;;-0.43;79.18;101480.00;5094706;28;20109;-56
2023/02/26 05:39:23;;;;;;;12.60;2.92;;;;;;;-0.52;79.98;101473.41;5092026;28;20055;-56
2023/02/26 05:41:52;;;;;;;9.07;2.33;;;;;;;-0.48;79.51;101474.97;5090779;28;20106;-56
2023/02/26 05:44:18;;;;;;;8.27;2.33;;;;;;;-0.54;78.94;101483.06;5093690;28;20036;-56
2023/02/26 05:46:45;;;;;;;14.75;2.55;;;;;;;-0.52;79.14;101489.06;5088798;28;20269;-56
2023/02/26 05:49:12;;;;;;;7.82;2.13;;;;;;;-0.64;78.89;101498.25;5094785;28;20153;-56
2023/02/26 05:51:38;;;;;;;6.82;2.30;;;;;;;-0.47;79.31;101500.16;5071245;28;20058;-56
2023/02/26 05:54:06;;;;;;;7.32;2.08;;;;;;;-0.52;78.35;101509.91;5074693;28;20072;-56
2023/02/26 05:56:32;;;;;;;10.40;2.35;;;;;;;-0.44;78.03;101507.84;5069741;28;20036;-56
2023/02/26 05:59:02;;;;;;;12.73;2.50;;;;;;;-0.53;78.21;101512.56;5071181;28;20098;-56
2023/02/26 06:01:28;;;;;;;7.30;2.30;;;;;;;-0.61;78.73;101510.28;5073827;28;20033;-57
2023/02/26 06:03:55;;;;;;;10.15;2.45;;;;;;;-0.59;78.12;101524.09;5069552;28;20089;-55
2023/02/26 06:06:22;;;;;;;14.55;2.15;;;;;;;-0.63;78.24;101519.94;5073873;28;20094;-56
2023/02/26 06:08:49;;;;;;;9.30;2.42;;;;;;;-0.51;77.38;101531.59;5069417;28;20054;-56
2023/02/26 06:11:15;;;;;;;11.35;2.53;;;;;;;-0.62;77.51;101530.31;5074084;28;20408;-56
2023/02/26 06:13:42;;;;;;;8.32;2.13;;;;;;;-0.59;77.37;101529.31;5066517;28;20044;-55
2023/02/26 06:16:09;;;;;;;6.95;2.15;;;;;;;-0.59;78.12;101543.19;5073918;28;20075;-56
2023/02/26 06:18:35;;;;;;;9.07;2.20;;;;;;;-0.72;77.86;101543.78;5069140;28;20131;-56
2023/02/26 06:21:02;;;;;;;9.93;2.85;;;;;;;-0.71;77.85;101535.03;5071973;28;20053;-56
2023/02/26 06:23:29;;;;;;;7.43;2.05;;;;;;;-0.70;77.66;101540.19;5069592;28;20051;-55
2023/02/26 06:25:55;;;;;;;10.82;2.30;;;;;;;-0.75;77.78;101549.94;5073726;28;20053;-55
2023/02/26 06:28:23;;;;;;;6.32;2.10;;;;;;;-0.65;77.46;101559.09;5070775;28;20041;-56
2023/02/26 06:30:52;;;;;;;6.93;2.13;;;;;;;-0.67;77.09;101560.06;5069214;28;20371;-56
2023/02/26 06:33:19;;;;;;;9.75;2.20;;;;;;;-0.70;77.16;101557.59;5073542;28;20047;-56
2023/02/26 06:35:46;;;;;;;21.30;6.07;;;;;;;-0.72;77.27;101572.44;5069013;28;20049;-56
2023/02/26 06:38:13;;;;;;;10.35;2.70;;;;;;;-0.65;78.07;101572.13;5073541;28;20048;-55
2023/02/26 06:40:40;;;;;;;6.72;2.15;;;;;;;-0.62;76.49;101584.16;5067742;28;20052;-55
2023/02/26 06:43:07;;;;;;;11.50;2.30;;;;;;;-0.62;76.54;101587.66;5088825;28;20465;-55
2023/02/26 06:45:34;;;;;;;9.02;2.45;;;;;;;-0.38;76.05;101587.56;5068824;28;20147;-56
2023/02/26 06:48:01;;;;;;;10.73;2.60;;;;;;;-0.41;75.70;101587.69;5069872;28;20433;-55
2023/02/26 06:50:28;;;;;;;8.02;2.10;;;;;;;-0.48;75.81;101589.69;5072977;28;20086;-56
2023/02/26 06:52:54;;;;;;;9.18;2.08;;;;;;;-0.47;76.22;101599.22;5068836;28;20506;-56
2023/02/26 06:55:25;;;;;;;11.68;2.55;;;;;;;-0.56;76.03;101609.13;5073057;28;20600;-55
2023/02/26 06:57:53;;;;;;;10.75;2.30;;;;;;;-0.63;77.16;101603.34;5067594;28;20049;-56
2023/02/26 07:00:20;;;;;;;9.38;2.15;;;;;;;-0.51;75.31;101615.00;5072737;28;20372;-56
2023/02/26 07:02:47;;;;;;;10.00;2.15;;;;;;;-0.68;76.10;101619.13;5068591;28;20040;-56
2023/02/26 07:05:14;;;;;;;9.20;2.47;;;;;;;-0.55;75.57;101619.50;5067454;28;20453;-56
2023/02/26 07:07:41;;;;;;;9.57;2.30;;;;;;;-0.53;76.00;101622.91;5067178;28;20054;-55
2023/02/26 07:10:10;;;;;;;6.47;2.03;;;;;;;-0.54;75.41;101633.41;5068778;28;20068;-55
2023/02/26 07:12:37;;;;;;;6.82;2.15;;;;;;;-0.45;75.63;101639.09;5072714;28;20406;-56
2023/02/26 07:15:05;;;;;;;12.75;2.38;;;;;;;-0.47;75.38;101640.91;5057903;28;20053;-54
2023/02/26 07:17:32;;;;;;;9.52;2.05;;;;;;;-0.41;75.77;101652.84;5051572;28;20167;-55
2023/02/26 07:20:05;;;;;;;7.78;2.10;;;;;;;-0.36;74.82;101652.66;5060578;28;20497;-55
2023/02/26 07:22:32;;;;;;;6.72;2.15;;;;;;;-0.28;74.81;101651.44;5067851;28;20067;-55
2023/02/26 07:24:59;;;;;;;5.15;2.05;;;;;;;-0.21;75.17;101663.31;5070566;28;20040;-54
2023/02/26 07:27:26;;;;;;;8.02;2.30;;;;;;;-0.12;74.55;101669.09;5066360;28;20048;-55
2023/02/26 07:29:53;;;;;;;11.60;2.38;;;;;;;-0.37;74.23;101669.22;5065405;28;20040;-55
2023/02/26 07:32:21;;;;;;;7.97;2.20;;;;;;;-0.32;73.85;101669.91;5051532;28;20033;-55
2023/02/26 07:34:47;;;;;;;8.73;2.17;;;;;;;-0.32;73.46;101677.72;5067205;28;20054;-56
2023/02/26 07:37:14;;;;;;;6.80;2.30;;;;;;;-0.27;74.05;101679.22;5035094;28;20383;-55
2023/02/26 07:39:41;;;;;;;8.18;2.10;;;;;;;-0.33;74.06;101681.22;5079292;28;20045;-55
2023/02/26 07:42:08;;;;;;;6.60;2.28;;;;;;;-0.27;73.91;101686.22;5060211;28;20490;-56
2023/02/26 07:44:35;;;;;;;6.40;2.33;;;;;;;-0.25;73.43;101690.44;5054516;28;20048;-55
2023/02/26 07:47:02;;;;;;;8.57;2.22;;;;;;;-0.41;74.11;101691.97;5048626;28;20044;-55
2023/02/26 07:49:31;;;;;;;7.40;2.30;;;;;;;-0.33;73.71;101694.25;5068899;28;20037;-55
2023/02/26 07:51:58;;;;;;;8.38;2.33;;;;;;;-0.30;74.05;101700.22;5061254;28;20051;-55
2023/02/26 07:54:24;;;;;;;8.05;2.50;;;;;;;-0.14;74.20;101695.22;5072869;28;20521;-55
2023/02/26 07:56:52;;;;;;;7.13;2.15;;;;;;;-0.09;73.52;101708.94;5067500;28;20123;-56
2023/02/26 07:59:18;;;;;;;11.48;2.30;;;;;;;-0.05;74.02;101709.69;5072501;28;20066;-56
2023/02/26 08:01:46;;;;;;;5.03;1.90;;;;;;;0.07;72.92;101716.13;5076624;28;20044;-56
2023/02/26 08:04:13;;;;;;;6.75;2.17;;;;;;;0.34;72.23;101724.59;5080947;28;20049;-56
2023/02/26 08:06:40;;;;;;;7.47;1.98;;;;;;;0.46;71.07;101733.69;5046383;28;20072;-56
2023/02/26 08:09:06;;;;;;;9.48;2.60;;;;;;;0.49;71.68;101723.09;5059793;28;20439;-56
2023/02/26 08:11:38;;;;;;;9.25;2.85;;;;;;;0.69;71.95;101730.09;5052016;28;20041;-56
2023/02/26 08:14:06;;;;;;;10.23;2.72;;;;;;;0.81;70.46;101740.00;5056391;28;20048;-55
2023/02/26 08:16:33;;;;;;;11.00;2.00;;;;;;;0.74;70.34;101728.13;5053296;28;20407;-55
2023/02/26 08:19:00;;;;;;;8.90;2.30;;;;;;;0.55;69.11;101733.31;5056238;28;20044;-55
2023/02/26 08:21:27;;;;;;;7.55;2.28;;;;;;;0.33;68.79;101739.41;5064838;28;20072;-55
2023/02/26 08:23:54;;;;;;;8.80;2.30;;;;;;;0.26;69.63;101737.97;5076080;28;20128;-56
2023/02/26 08:26:22;;;;;;;7.18;2.30;;;;;;;0.46;69.32;101739.75;5072213;28;20044;-55
2023/02/26 08:28:49;;;;;;;6.82;2.00;;;;;;;0.79;68.70;101733.16;5075755;28;20068;-55
2023/02/26 08:31:16;;;;;;;8.25;1.98;;;;;;;1.06;66.79;101739.78;5071967;28;20048;-56
2023/02/26 08:33:43;;;;;;;8.18;2.00;;;;;;;1.25;67.25;101739.78;5074753;28;20573;-55
2023/02/26 08:36:10;;;;;;;5.90;2.03;;;;;;;1.21;67.22;101742.63;5073703;28;20056;-56
2023/02/26 08:38:38;;;;;;;8.80;2.30;;;;;;;0.91;65.86;101761.34;5073953;28;20040;-55
2023/02/26 08:41:05;;;;;;;6.20;1.88;;;;;;;0.80;66.57;101761.84;5090786;28;20040;-55
2023/02/26 08:43:31;;;;;;;9.32;1.98;;;;;;;0.89;66.57;101771.88;5072605;28;20074;-56
2023/02/26 08:45:59;;;;;;;11.95;2.30;;;;;;;0.82;66.21;101759.13;5075126;28;20059;-55
2023/02/26 08:48:26;;;;;;;7.35;2.10;;;;;;;0.81;67.00;101779.19;5071338;28;20048;-56
2023/02/26 08:50:52;;;;;;;5.03;1.88;;;;;;;0.89;66.48;101774.50;5075247;28;20127;-56
2023/02/26 08:53:19;;;;;;;9.55;2.22;;;;;;;1.01;66.05;101786.16;5070855;28;20094;-55
2023/02/26 08:55:49;;;;;;;4.88;1.73;;;;;;;0.88;65.43;101785.84;5075647;28;20056;-55
2023/02/26 08:58:16;;;;;;;8.02;2.08;;;;;;;1.01;65.05;101793.16;5071130;28;20490;-55
2023/02/26 09:00:43;;;;;;;5.15;1.95;;;;;;;0.94;65.97;101797.81;5074598;28;20036;-55
2023/02/26 09:03:10;;;;;;;5.68;2.28;;;;;;;0.97;64.70;101805.50;5071016;28;20040;-55
2023/02/26 09:05:37;;;;;;;7.68;1.98;;;;;;;1.03;65.51;101797.41;5074589;28;20185;-55
2023/02/26 09:08:04;;;;;;;9.95;2.70;;;;;;;1.03;64.39;101802.63;5070647;28;20075;-56
2023/02/26 09:10:31;;;;;;;6.93;2.28;;;;;;;1.05;64.84;101803.41;5075186;28;20123;-55
2023/02/26 09:12:58;;;;;;;7.78;2.00;;;;;;;1.17;64.90;101802.03;5070481;28;20094;-55
2023/02/26 09:15:25;;;;;;;5.00;2.00;;;;;;;1.07;64.17;101816.41;5074787;28;20110;-55
2023/02/26 09:17:56;;;;;;;9.10;2.10;;;;;;;0.93;63.41;101811.78;5070562;28;20048;-56
2023/02/26 09:20:23;;;;;;;5.53;1.73;;;;;;;0.96;64.38;101824.72;5074392;28;20041;-55
2023/02/26 09:22:50;;;;;;;8.15;2.20;;;;;;;0.98;64.60;101824.66;5066869;28;20067;-55
2023/02/26 09:25:17;;;;;;;8.57;1.98;;;;;;;1.14;64.72;101825.69;5074945;28;20083;-57
2023/02/26 09:27:43;;;;;;;10.73;2.00;;;;;;;1.20;62.61;101824.56;5070228;28;20112;-56
2023/02/26 09:30:11;;;;;;;12.05;1.80;;;;;;;1.28;62.05;101831.16;5074874;28;20045;-56
2023/02/26 09:32:38;;;;;;;5.50;1.85;;;;;;;1.26;61.76;101819.94;5070411;28;20078;-56
2023/02/26 09:35:05;;;;;;;6.65;1.80;;;;;;;1.21;61.71;101828.88;5074376;28;20071;-56
2023/02/26 09:37:32;;;;;;;6.10;1.80;;;;;;;1.26;61.84;101824.31;5070491;28;20040;-56
2023/02/26 09:39:59;;;;;;;6.40;1.70;;;;;;;1.47;62.10;101820.72;5093826;28;20291;-56
2023/02/26 09:42:53;;;;;;;4.10;1.67;;;;;;;1.73;60.22;101835.25;5089254;28;20272;-56
2023/02/26 09:45:29;;;;;;;7.72;2.20;;;;;;;1.75;59.53;101829.97;5094036;28;20444;-56
2023/02/26 09:47:56;;;;;;;5.95;1.75;;;;;;;1.77;59.38;101835.13;5090220;28;20040;-56
2023/02/26 09:50:31;;;;;;;7.25;1.70;;;;;;;1.80;59.88;101841.06;5085287;28;20372;-56
2023/02/26 09:53:24;;;;;;;7.97;2.40;;;;;;;1.95;57.93;101843.88;5069934;28;20154;-56
2023/02/26 09:55:55;;;;;;;6.95;2.10;;;;;;;1.99;57.76;101846.28;5073971;28;20094;-56
2023/02/26 09:58:30;;;;;;;4.75;1.77;;;;;;;2.12;57.65;101857.03;5069674;28;20075;-56
2023/02/26 10:01:37;;;;;;;5.38;1.70;;;;;;;2.17;57.65;101859.44;5073476;28;20040;-56
2023/02/26 10:04:30;;;;;;;5.43;2.08;;;;;;;1.96;56.59;101859.50;5069421;28;20090;-56
2023/02/26 10:07:25;;;;;;;5.50;1.83;;;;;;;2.19;58.31;101863.66;5072729;28;20044;-56
2023/02/26 10:12:59;;;;;;;8.45;1.90;;;;;;;2.60;56.19;101878.31;5106136;27;20746;-57
2023/02/26 10:15:33;;;;;;;4.95;1.58;;;;;;;2.58;54.88;101877.53;5111207;28;20513;-56
2023/02/26 10:18:16;;;;;;;6.38;1.90;;;;;;;2.69;54.78;101878.75;5106563;28;20493;-57
2023/02/26 10:23:55;;;;;;;4.65;1.70;;;;;;;3.51;54.55;101892.13;5102197;27;20366;-57
2023/02/26 10:26:28;;;;;;;7.72;2.08;;;;;;;3.72;52.99;101883.13;5109232;28;20379;-56
2023/02/26 10:29:20;;;;;;;5.10;1.67;;;;;;;3.36;51.89;101888.53;5101479;28;20139;-56
2023/02/26 10:32:27;;;;;;;6.88;1.85;;;;;;;3.43;51.67;101890.72;5090112;28;20040;-56
2023/02/26 10:34:58;;;;;;;7.95;1.67;;;;;;;3.70;51.00;101882.34;5085707;28;20040;-56
2023/02/26 10:37:46;;;;;;;6.47;1.75;;;;;;;3.82;50.93;101894.84;5106018;28;20051;-56
2023/02/26 10:43:21;;;;;;;5.00;1.70;;;;;;;3.59;50.60;101885.53;5105821;27;20359;-55
2023/02/26 10:46:16;;;;;;;5.88;1.70;;;;;;;3.44;50.81;101897.69;5110957;28;20083;-55
2023/02/26 10:49:14;;;;;;;4.30;1.60;;;;;;;5.15;47.05;101892.66;5106088;28;20070;-55
2023/02/26 10:51:42;;;;;;;6.45;1.58;;;;;;;6.76;42.81;101896.75;5109320;28;20565;-55
2023/02/26 10:54:23;;;;;;;4.68;1.70;;;;;;;5.70;44.69;101897.22;5106439;28;20495;-56
2023/02/26 10:56:50;;;;;;;7.10;2.00;;;;;;;5.93;45.71;101908.97;5110868;28;20496;-55
2023/02/26 10:59:18;;;;;;;6.40;1.73;;;;;;;4.72;45.31;101903.03;5106027;28;20044;-56
2023/02/26 11:01:47;;;;;;;5.65;1.70;;;;;;;3.96;47.92;101904.56;5110179;28;20430;-56
2023/02/26 11:04:17;;;;;;;8.95;1.90;;;;;;;3.86;48.27;101900.75;5106241;28;20043;-56
2023/02/26 11:06:53;;;;;;;11.77;3.85;;;;;;;4.33;47.18;101899.09;5110399;28;20052;-56
2023/02/26 11:09:34;;;;;;;6.10;2.03;;;;;;;5.06;47.21;101912.47;5106213;28;20047;-56
2023/02/26 11:12:12;;;;;;;5.47;1.70;;;;;;;4.85;47.35;101911.91;5110739;28;20118;-56
2023/02/26 11:14:41;;;;;;;6.57;1.80;;;;;;;4.78;45.99;101911.44;5105690;28;20052;-56
2023/02/26 11:17:21;;;;;;;5.50;1.75;;;;;;;6.62;42.75;101919.59;5110664;28;20101;-57
2023/02/26 11:19:55;;;;;;;5.10;1.70;;;;;;;6.50;42.78;101923.03;5105732;28;20047;-56
2023/02/26 11:22:24;;;;;;;6.28;1.77;;;;;;;9.99;36.77;101924.56;5110256;28;20040;-57
2023/02/26 11:24:52;;;;;;;6.38;1.95;;;;;;;11.79;31.33;101926.59;5102356;28;20048;-57
2023/02/26 11:27:26;;;;;;;7.50;2.00;;;;;;;13.70;28.76;101926.22;5110316;28;20050;-57
2023/02/26 11:29:56;;;;;;;7.55;2.13;;;;;;;14.14;27.60;101923.78;5104797;28;20043;-57
2023/02/26 11:32:33;;;;;;;5.45;1.98;;;;;;;12.43;30.14;101926.28;5110085;28;20036;-57
2023/02/26 11:35:01;;;;;;;3.80;1.70;;;;;;;13.91;27.84;101930.47;5105565;28;20127;-57
2023/02/26 11:37:33;;;;;;;6.00;1.85;;;;;;;13.57;27.56;101926.53;5109932;28;20081;-57
2023/02/26 11:40:12;;;;;;;6.00;1.80;;;;;;;12.22;29.29;101926.38;5115017;28;20374;-57
2023/02/26 11:42:48;;;;;;;6.85;1.83;;;;;;;10.49;30.60;101920.66;5129412;27;20500;-57
2023/02/26 11:45:18;;;;;;;5.68;1.60;;;;;;;9.17;31.79;101924.69;5125614;27;20139;-56
2023/02/26 11:47:47;;;;;;;5.97;1.90;;;;;;;7.29;34.61;101923.97;5130359;27;20479;-56
2023/02/26 11:50:19;;;;;;;5.43;1.92;;;;;;;6.91;37.72;101922.09;5118556;27;20048;-56
2023/02/26 11:52:54;;;;;;;5.75;1.73;;;;;;;6.82;37.76;101920.94;5106172;28;20481;-56
2023/02/26 11:55:27;;;;;;;7.88;2.15;;;;;;;8.36;35.64;101912.16;5091692;28;20445;-56
2023/02/26 11:57:55;;;;;;;9.02;2.10;;;;;;;9.70;33.23;101928.66;5096215;28;20059;-56
2023/02/26 12:00:40;;;;;;;;;;;;;;;10.51;32.40;101924.88;5091983;28;20062;-56
2023/02/26 12:03:16;;;;;;;9.80;2.40;;;;;;;11.83;30.03;101936.84;5096129;28;19920;-56
2023/02/26 12:05:44;;;;;;;6.95;1.80;;;;;;;9.68;31.68;101914.66;5091136;28;20110;-56
2023/02/26 12:08:40;;;;;;;6.05;2.13;;;;;;;8.53;31.98;101914.47;5095364;28;20043;-56
2023/02/26 12:11:34;;;;;;;2.40;1.30;;;;;;;6.72;34.19;101910.13;5091074;28;20126;-56
2023/02/26 12:17:05;;;;;;;8.23;1.90;;;;;;;8.91;33.29;101923.16;5110737;27;20387;-56
2023/02/26 12:20:14;;;;;;;6.28;1.70;;;;;;;10.92;27.79;101925.09;5106213;28;20075;-57
2023/02/26 12:23:00;;;;;;;6.15;1.90;;;;;;;11.96;26.71;101922.53;5110425;28;20173;-57